createdAt,value
2019-03-24T00:00:28.472Z,37.50
2019-03-24T00:02:57.981Z,36.43
2019-03-24T00:05:27.393Z,38.80
2019-03-24T00:07:57.003Z,37.60
2019-03-24T00:10:27.004Z,36.63
2019-03-24T00:12:56.448Z,41.77
2019-03-24T00:15:26.784Z,37.83
2019-03-24T00:17:56.629Z,43.17
2019-03-24T00:20:25.951Z,43.77
2019-03-24T00:22:55.368Z,39.67
2019-03-24T00:25:24.738Z,35.40
2019-03-24T00:27:54.471Z,34.10
2019-03-24T00:30:23.888Z,38.97
2019-03-24T00:32:53.548Z,39.07
2019-03-24T00:35:23.176Z,40.37
2019-03-24T00:37:52.511Z,39.83
2019-03-24T00:40:22.073Z,39.20
2019-03-24T00:42:51.785Z,36.93
2019-03-24T00:45:21.204Z,39.93
2019-03-24T00:47:50.553Z,38.60
2019-03-24T00:50:20.264Z,41.00
2019-03-24T00:52:49.701Z,34.87
2019-03-24T00:55:19.215Z,37.30
2019-03-24T00:57:48.628Z,42.87
2019-03-24T01:00:20.636Z,37.90
2019-03-24T01:02:50.133Z,38.67
2019-03-24T01:05:19.720Z,37.30
2019-03-24T01:07:49.284Z,39.80
2019-03-24T01:10:18.820Z,34.23
2019-03-24T01:12:48.550Z,39.47
2019-03-24T01:15:18.463Z,37.00
2019-03-24T01:17:47.980Z,38.37
2019-03-24T01:20:17.538Z,40.07
2019-03-24T01:22:47.060Z,40.80
2019-03-24T01:25:16.565Z,36.97
2019-03-24T01:27:46.092Z,35.00
2019-03-24T01:30:15.537Z,39.10
2019-03-24T01:32:44.960Z,40.07
2019-03-24T01:35:14.564Z,38.73
2019-03-24T01:37:44.100Z,41.07
2019-03-24T01:40:13.676Z,44.30
2019-03-24T01:42:43.195Z,40.53
2019-03-24T01:45:13.460Z,39.03
2019-03-24T01:47:42.896Z,41.43
2019-03-24T01:50:13.380Z,43.17
2019-03-24T01:52:42.804Z,38.73
2019-03-24T01:55:12.244Z,40.00
2019-03-24T01:57:41.677Z,39.47
2019-03-24T02:00:11.439Z,41.40
2019-03-24T02:02:41.031Z,40.83
2019-03-24T02:05:10.508Z,41.90
2019-03-24T02:07:40.335Z,42.57
2019-03-24T02:10:10.776Z,42.97
2019-03-24T02:12:40.217Z,43.47
2019-03-24T02:15:10.644Z,42.50
2019-03-24T02:17:40.168Z,40.87
2019-03-24T02:20:11.516Z,40.03
2019-03-24T02:22:40.812Z,43.20
2019-03-24T02:25:10.479Z,46.03
2019-03-24T02:27:39.984Z,42.03
2019-03-24T02:30:10.541Z,44.40
2019-03-24T02:32:40.053Z,48.90
2019-03-24T02:35:09.956Z,41.87
2019-03-24T02:38:31.148Z,46.17
2019-03-24T02:41:01.249Z,45.60
2019-03-24T02:43:31.006Z,42.83
2019-03-24T02:46:01.107Z,41.67
2019-03-24T02:48:30.779Z,44.37
2019-03-24T02:51:00.556Z,43.30
2019-03-24T02:53:30.588Z,47.53
2019-03-24T02:56:00.272Z,46.97
2019-03-24T02:58:30.013Z,44.77
2019-03-24T03:00:59.750Z,46.17
2019-03-24T03:03:29.434Z,50.90
2019-03-24T03:05:59.123Z,52.63
2019-03-24T03:08:28.879Z,54.63
2019-03-24T03:10:58.643Z,50.60
2019-03-24T03:13:28.465Z,43.77
2019-03-24T03:15:58.255Z,48.03
2019-03-24T03:18:28.015Z,48.73
2019-03-24T03:20:57.814Z,47.10
2019-03-24T03:23:27.560Z,44.70
2019-03-24T03:25:57.256Z,49.37
2019-03-24T03:28:27.009Z,46.83
2019-03-24T03:30:56.968Z,48.10
2019-03-24T03:33:26.734Z,47.37
2019-03-24T03:35:56.489Z,41.83
2019-03-24T03:38:26.236Z,52.37
2019-03-24T03:40:56.009Z,47.33
2019-03-24T03:43:25.768Z,52.20
2019-03-24T03:45:55.512Z,51.83
2019-03-24T03:48:25.262Z,49.23
2019-03-24T03:50:55.050Z,46.57
2019-03-24T03:53:24.736Z,50.17
2019-03-24T03:55:54.540Z,48.93
2019-03-24T03:58:24.211Z,51.33
2019-03-24T04:00:54.004Z,48.83
2019-03-24T04:03:23.823Z,46.17
2019-03-24T04:05:53.572Z,52.20
2019-03-24T04:08:23.373Z,47.40
2019-03-24T04:10:53.106Z,50.23
2019-03-24T04:13:22.868Z,54.03
2019-03-24T04:15:52.652Z,51.50
2019-03-24T04:18:22.517Z,48.80
2019-03-24T04:20:52.384Z,52.87
2019-03-24T04:23:22.152Z,51.87
2019-03-24T04:25:51.951Z,52.47
2019-03-24T04:28:21.692Z,50.30
2019-03-24T04:30:51.727Z,52.33
2019-03-24T04:33:21.576Z,53.63
2019-03-24T04:35:51.275Z,51.30
2019-03-24T04:38:21.032Z,54.70
2019-03-24T04:40:50.771Z,50.63
2019-03-24T04:43:20.536Z,50.07
2019-03-24T04:45:50.269Z,51.93
2019-03-24T04:48:19.945Z,55.10
2019-03-24T04:50:49.623Z,52.43
2019-03-24T04:53:20.769Z,52.10
2019-03-24T04:55:50.912Z,50.40
2019-03-24T04:58:20.663Z,50.93
2019-03-24T05:00:50.628Z,52.57
2019-03-24T05:03:20.320Z,50.70
2019-03-24T05:05:50.596Z,56.83
2019-03-24T05:08:20.423Z,47.67
2019-03-24T05:10:50.111Z,51.97
2019-03-24T05:13:19.857Z,58.00
2019-03-24T05:15:49.543Z,46.70
2019-03-24T05:18:19.241Z,51.97
2019-03-24T05:20:49.016Z,52.07
2019-03-24T05:23:18.693Z,48.97
2019-03-24T05:25:48.355Z,52.23
2019-03-24T05:28:18.107Z,51.13
2019-03-24T05:30:47.875Z,54.30
2019-03-24T05:33:17.620Z,54.67
2019-03-24T05:35:47.381Z,46.57
2019-03-24T05:38:17.131Z,51.60
2019-03-24T05:40:46.872Z,54.93
2019-03-24T05:43:16.559Z,50.97
2019-03-24T05:45:46.291Z,57.97
2019-03-24T05:48:16.069Z,52.80
2019-03-24T05:50:45.835Z,44.07
2019-03-24T05:53:15.611Z,48.40
2019-03-24T05:55:45.384Z,49.03
2019-03-24T05:58:15.162Z,51.87
2019-03-24T06:00:44.896Z,55.17
2019-03-24T06:03:14.988Z,47.30
2019-03-24T06:05:44.806Z,55.60
2019-03-24T06:08:14.591Z,50.50
2019-03-24T06:10:44.276Z,53.70
2019-03-24T06:13:14.023Z,49.63
2019-03-24T06:15:43.755Z,55.13
2019-03-24T06:18:13.516Z,56.20
2019-03-24T06:20:43.303Z,50.43
2019-03-24T06:23:12.970Z,56.20
2019-03-24T06:25:42.901Z,49.20
2019-03-24T06:28:12.693Z,54.83
2019-03-24T06:30:42.516Z,49.83
2019-03-24T06:33:12.336Z,55.60
2019-03-24T06:35:42.019Z,53.37
2019-03-24T06:38:11.776Z,50.47
2019-03-24T06:40:41.464Z,48.73
2019-03-24T06:43:11.259Z,53.13
2019-03-24T06:45:41.035Z,50.40
2019-03-24T06:48:10.788Z,47.63
2019-03-24T06:50:40.451Z,47.67
2019-03-24T06:53:10.247Z,53.57
2019-03-24T06:55:39.987Z,52.87
2019-03-24T06:58:09.650Z,47.97
2019-03-24T07:00:39.420Z,51.40
2019-03-24T07:03:09.076Z,56.07
2019-03-24T07:05:38.831Z,54.40
2019-03-24T07:08:08.526Z,54.23
2019-03-24T07:10:38.217Z,60.20
2019-03-24T07:13:07.975Z,53.27
2019-03-24T07:15:37.719Z,51.63
2019-03-24T07:18:08.680Z,55.67
2019-03-24T07:20:38.844Z,53.83
2019-03-24T07:23:08.618Z,52.00
2019-03-24T07:25:38.386Z,53.90
2019-03-24T07:28:08.156Z,55.50
2019-03-24T07:30:37.912Z,54.57
2019-03-24T07:33:07.787Z,50.77
2019-03-24T07:35:37.699Z,49.70
2019-03-24T07:38:07.539Z,46.43
2019-03-24T07:40:37.231Z,52.30
2019-03-24T07:43:06.983Z,48.33
2019-03-24T07:45:37.047Z,50.33
2019-03-24T07:48:06.793Z,52.77
2019-03-24T07:50:36.563Z,55.23
2019-03-24T07:53:07.221Z,57.03
2019-03-24T07:55:37.631Z,47.97
2019-03-24T07:58:07.331Z,54.20
2019-03-24T08:00:38.207Z,56.00
2019-03-24T08:03:07.871Z,52.43
2019-03-24T08:05:37.962Z,50.23
2019-03-24T08:08:07.647Z,56.60
2019-03-24T08:10:37.396Z,53.37
2019-03-24T08:13:07.128Z,52.17
2019-03-24T08:15:36.888Z,49.90
2019-03-24T08:18:07.554Z,53.33
2019-03-24T08:20:37.364Z,58.03
2019-03-24T08:23:07.123Z,49.10
2019-03-24T08:25:36.804Z,55.90
2019-03-24T08:28:06.559Z,54.47
2019-03-24T08:30:38.158Z,54.03
2019-03-24T08:33:07.922Z,49.90
2019-03-24T08:35:37.765Z,48.57
2019-03-24T08:38:07.644Z,50.90
2019-03-24T08:40:37.561Z,48.43
2019-03-24T08:43:07.291Z,50.63
2019-03-24T08:45:37.152Z,50.70
2019-03-24T08:48:06.894Z,51.27
2019-03-24T08:50:36.950Z,55.73
2019-03-24T08:53:06.779Z,48.50
2019-03-24T08:55:36.507Z,50.13
2019-03-24T08:58:06.351Z,48.43
2019-03-24T09:00:36.128Z,51.07
2019-03-24T09:03:05.815Z,55.70
2019-03-24T09:05:35.499Z,48.80
2019-03-24T09:08:05.203Z,50.73
2019-03-24T09:10:35.010Z,48.50
2019-03-24T09:13:04.774Z,51.53
2019-03-24T09:15:34.443Z,46.30
2019-03-24T09:18:04.611Z,45.63
2019-03-24T09:20:41.648Z,46.17
2019-03-24T09:23:05.931Z,44.33
2019-03-24T09:25:35.873Z,47.80
2019-03-24T09:28:06.191Z,45.23
2019-03-24T09:30:39.377Z,47.27
2019-03-24T09:33:09.515Z,43.20
2019-03-24T09:35:39.180Z,44.07
2019-03-24T09:38:08.963Z,47.10
2019-03-24T09:40:38.661Z,56.43
2019-03-24T09:43:08.797Z,46.73
2019-03-24T09:45:38.555Z,42.13
2019-03-24T09:48:08.383Z,45.53
2019-03-24T09:50:38.311Z,42.77
2019-03-24T09:53:08.146Z,42.70
2019-03-24T09:55:37.911Z,44.43
2019-03-24T09:58:07.751Z,41.20
2019-03-24T10:00:37.439Z,47.83
2019-03-24T10:03:07.179Z,39.97
2019-03-24T10:05:36.859Z,43.47
2019-03-24T10:08:06.534Z,42.23
2019-03-24T10:10:36.321Z,43.07
2019-03-24T10:13:06.260Z,46.50
2019-03-24T10:15:36.023Z,48.20
2019-03-24T10:18:06.723Z,39.93
2019-03-24T10:20:36.438Z,41.93
2019-03-24T10:23:06.139Z,44.30
2019-03-24T10:25:35.933Z,41.20
2019-03-24T10:28:05.651Z,40.73
2019-03-24T10:30:35.403Z,37.43
2019-03-24T10:33:05.170Z,34.77
2019-03-24T10:35:35.174Z,42.67
2019-03-24T10:38:05.938Z,40.80
2019-03-24T10:40:35.936Z,38.73
2019-03-24T10:43:05.701Z,42.23
2019-03-24T10:45:35.807Z,41.50
2019-03-24T10:48:05.710Z,38.90
2019-03-24T10:50:35.494Z,39.77
2019-03-24T10:53:05.263Z,40.23
2019-03-24T10:55:35.035Z,36.87
2019-03-24T10:58:04.796Z,39.70
2019-03-24T11:00:39.428Z,39.70
2019-03-24T11:03:09.219Z,40.20
2019-03-24T11:05:39.022Z,43.70
2019-03-24T11:08:08.768Z,35.53
2019-03-24T11:10:38.790Z,37.17
2019-03-24T11:13:08.475Z,36.47
2019-03-24T11:15:38.347Z,36.80
2019-03-24T11:18:08.171Z,39.97
2019-03-24T11:20:37.928Z,43.23
2019-03-24T11:23:07.608Z,40.37
2019-03-24T11:25:37.376Z,36.13
2019-03-24T11:28:07.112Z,39.97
2019-03-24T11:31:10.944Z,35.77
2019-03-24T11:33:40.388Z,36.57
2019-03-24T11:36:09.881Z,40.90
2019-03-24T11:38:39.268Z,36.07
2019-03-24T11:41:08.749Z,37.37
2019-03-24T11:43:38.784Z,39.00
2019-03-24T11:46:08.321Z,39.23
2019-03-24T11:48:37.717Z,35.33
2019-03-24T11:51:07.131Z,37.27
2019-03-24T11:53:36.617Z,34.53
2019-03-24T11:56:06.182Z,35.97
2019-03-24T11:58:35.702Z,33.07
2019-03-24T12:01:05.127Z,34.00
2019-03-24T12:03:34.559Z,30.80
2019-03-24T12:06:13.903Z,40.43
2019-03-24T12:08:35.178Z,33.73
2019-03-24T12:11:04.690Z,36.73
2019-03-24T12:13:34.245Z,34.13
2019-03-24T12:16:03.918Z,34.87
2019-03-24T12:18:33.348Z,36.03
2019-03-24T12:21:02.786Z,37.53
2019-03-24T12:23:32.088Z,34.93
2019-03-24T12:26:01.530Z,37.23
2019-03-24T12:28:30.904Z,39.47
2019-03-24T12:31:00.336Z,37.33
2019-03-24T12:33:29.904Z,38.53
2019-03-24T12:35:59.335Z,34.73
2019-03-24T12:38:28.752Z,37.73
2019-03-24T12:40:58.185Z,36.23
2019-03-24T12:43:27.619Z,34.70
2019-03-24T12:45:57.000Z,35.90
2019-03-24T12:48:26.663Z,37.47
2019-03-24T12:50:56.216Z,40.67
2019-03-24T12:53:25.644Z,37.97
2019-03-24T12:55:55.048Z,38.07
2019-03-24T12:58:24.524Z,36.17
2019-03-24T13:00:54.050Z,34.80
2019-03-24T13:03:23.496Z,38.43
2019-03-24T13:05:52.933Z,35.03
2019-03-24T13:08:22.666Z,40.40
2019-03-24T13:10:52.143Z,42.27
2019-03-24T13:13:21.452Z,39.80
2019-03-24T13:15:50.996Z,40.83
2019-03-24T13:18:20.449Z,37.30
2019-03-24T13:20:49.876Z,37.37
2019-03-24T13:23:19.180Z,41.17
2019-03-24T13:25:50.555Z,44.40
2019-03-24T13:28:19.717Z,38.00
2019-03-24T13:30:49.117Z,44.57
2019-03-24T13:33:18.564Z,40.43
2019-03-24T13:35:51.652Z,42.07
2019-03-24T13:38:21.364Z,39.57
2019-03-24T13:40:50.808Z,39.87
2019-03-24T13:43:20.324Z,40.60
2019-03-24T13:45:49.744Z,42.70
2019-03-24T13:48:19.069Z,35.50
2019-03-24T13:50:48.484Z,37.40
2019-03-24T13:53:18.076Z,35.10
2019-03-24T13:55:47.404Z,38.93
2019-03-24T13:58:16.892Z,34.00
2019-03-24T14:00:46.424Z,32.47
2019-03-24T14:03:15.892Z,34.87
2019-03-24T14:05:45.768Z,35.37
2019-03-24T14:08:15.088Z,35.10
2019-03-24T14:10:44.503Z,33.03
2019-03-24T14:13:14.244Z,32.00
2019-03-24T14:15:43.688Z,32.13
2019-03-24T14:18:13.292Z,30.80
2019-03-24T14:20:43.992Z,32.07
2019-03-24T14:23:13.668Z,28.97
2019-03-24T14:25:43.269Z,31.67
2019-03-24T14:28:12.886Z,29.57
2019-03-24T14:30:44.170Z,32.03
2019-03-24T14:33:14.057Z,28.70
2019-03-24T14:35:44.010Z,28.40
2019-03-24T14:38:13.534Z,30.67
2019-03-24T14:40:43.008Z,31.10
2019-03-24T14:43:12.523Z,30.33
2019-03-24T14:45:42.256Z,30.57
2019-03-24T14:48:11.751Z,29.90
2019-03-24T14:50:41.257Z,31.80
2019-03-24T14:53:10.600Z,32.80
2019-03-24T14:55:40.235Z,27.37
2019-03-24T14:58:10.136Z,26.23
2019-03-24T15:00:41.681Z,30.10
2019-03-24T15:03:11.636Z,27.80
2019-03-24T15:05:41.133Z,28.80
2019-03-24T15:08:11.137Z,26.37
2019-03-24T15:10:40.832Z,24.60
2019-03-24T15:13:10.580Z,25.07
2019-03-24T15:15:40.020Z,24.60
2019-03-24T15:18:09.573Z,28.00
2019-03-24T15:20:39.216Z,22.43
2019-03-24T15:23:08.628Z,22.93
2019-03-24T15:25:38.019Z,22.03
2019-03-24T15:28:07.516Z,22.73
2019-03-24T15:30:37.168Z,22.30
2019-03-24T15:33:06.597Z,25.40
2019-03-24T15:35:36.075Z,27.93
2019-03-24T15:38:08.564Z,25.23
2019-03-24T15:40:36.748Z,23.70
2019-03-24T15:43:06.090Z,25.80
2019-03-24T15:45:35.612Z,26.50
2019-03-24T15:48:05.098Z,25.80
2019-03-24T15:50:34.612Z,28.50
2019-03-24T15:53:04.168Z,27.10
2019-03-24T15:55:33.533Z,22.43
2019-03-24T15:58:03.154Z,25.00
2019-03-24T16:00:49.509Z,30.60
2019-03-24T16:03:19.349Z,24.37
2019-03-24T16:05:48.801Z,25.23
2019-03-24T16:08:18.384Z,27.27
2019-03-24T16:10:47.802Z,26.60
2019-03-24T16:13:17.232Z,22.57
2019-03-24T16:15:46.820Z,23.70
2019-03-24T16:18:16.499Z,21.97
2019-03-24T16:20:46.112Z,20.63
2019-03-24T16:23:15.511Z,22.93
2019-03-24T16:25:45.357Z,18.57
2019-03-24T16:28:14.896Z,21.00
2019-03-24T16:30:44.392Z,18.53
2019-03-24T16:33:13.825Z,20.40
2019-03-24T16:35:43.192Z,15.67
2019-03-24T16:38:12.772Z,18.83
2019-03-24T16:40:42.200Z,19.83
2019-03-24T16:43:11.681Z,21.30
2019-03-24T16:45:41.391Z,15.83
2019-03-24T16:48:10.856Z,16.70
2019-03-24T16:50:40.861Z,17.20
2019-03-24T16:53:10.429Z,20.30
2019-03-24T16:55:39.912Z,17.00
2019-03-24T16:58:09.486Z,13.77
2019-03-24T17:00:38.965Z,14.40
2019-03-24T17:03:08.460Z,11.97
2019-03-24T17:05:38.236Z,11.20
2019-03-24T17:08:07.755Z,9.30
2019-03-24T17:10:37.576Z,10.63
2019-03-24T17:13:06.976Z,10.33
2019-03-24T17:15:36.488Z,10.33
2019-03-24T17:18:06.160Z,10.93
2019-03-24T17:20:35.664Z,11.37
2019-03-24T17:23:05.185Z,12.63
2019-03-24T17:25:34.519Z,12.07
2019-03-24T17:28:04.181Z,11.23
2019-03-24T17:30:33.650Z,9.33
2019-03-24T17:33:03.172Z,11.30
2019-03-24T17:35:32.712Z,9.23
2019-03-24T17:38:02.243Z,9.77
2019-03-24T17:40:31.789Z,10.80
2019-03-24T17:43:01.320Z,9.20
2019-03-24T17:45:30.829Z,12.30
2019-03-24T17:48:00.504Z,9.97
2019-03-24T17:50:30.290Z,9.83
2019-03-24T17:52:59.836Z,9.60
2019-03-24T17:55:31.041Z,9.87
2019-03-24T17:58:00.675Z,11.33
2019-03-24T18:00:41.175Z,12.83
2019-03-24T18:03:10.947Z,11.77
2019-03-24T18:05:40.828Z,13.87
2019-03-24T18:08:10.668Z,14.50
2019-03-24T18:10:40.072Z,14.33
2019-03-24T18:13:09.556Z,16.93
2019-03-24T18:15:39.210Z,17.60
2019-03-24T18:18:08.763Z,17.60
2019-03-24T18:20:38.281Z,16.47
2019-03-24T18:23:07.821Z,17.37
2019-03-24T18:25:37.412Z,17.27
2019-03-24T18:28:06.831Z,19.07
2019-03-24T18:30:36.376Z,20.43
2019-03-24T18:33:06.009Z,23.10
2019-03-24T18:35:35.540Z,22.10
2019-03-24T18:38:05.284Z,20.93
2019-03-24T18:40:34.592Z,22.40
2019-03-24T18:43:04.129Z,23.77
2019-03-24T18:45:33.548Z,23.10
2019-03-24T18:48:02.900Z,23.93
2019-03-24T18:50:32.340Z,23.53
2019-03-24T18:53:01.828Z,26.77
2019-03-24T18:55:31.417Z,24.87
2019-03-24T18:58:00.809Z,22.47
2019-03-24T19:00:30.220Z,26.30
2019-03-24T19:02:59.762Z,28.57
2019-03-24T19:05:29.328Z,26.03
2019-03-24T19:07:58.897Z,24.77
2019-03-24T19:10:28.432Z,23.43
2019-03-24T19:12:57.893Z,26.07
2019-03-24T19:15:27.653Z,25.97
2019-03-24T19:17:57.485Z,27.50
2019-03-24T19:20:26.956Z,27.13
2019-03-24T19:22:56.472Z,25.93
2019-03-24T19:25:25.972Z,26.80
2019-03-24T19:27:55.400Z,29.30
2019-03-24T19:30:37.906Z,27.17
2019-03-24T19:33:07.484Z,28.03
2019-03-24T19:35:37.045Z,30.63
2019-03-24T19:38:06.446Z,29.90
2019-03-24T19:40:36.372Z,27.67
2019-03-24T19:43:06.048Z,24.97
2019-03-24T19:45:35.494Z,26.43
2019-03-24T19:48:05.320Z,28.73
2019-03-24T19:50:35.168Z,27.97
2019-03-24T19:53:04.801Z,29.60
2019-03-24T19:55:34.270Z,28.17
2019-03-24T19:58:03.804Z,27.63
2019-03-24T20:00:33.297Z,26.30
2019-03-24T20:03:02.774Z,27.10
2019-03-24T20:05:32.303Z,26.93
2019-03-24T20:08:01.866Z,27.03
2019-03-24T20:10:31.316Z,25.77
2019-03-24T20:13:00.705Z,25.53
2019-03-24T20:15:30.208Z,22.33
2019-03-24T20:17:59.725Z,23.97
2019-03-24T20:20:29.085Z,23.43
2019-03-24T20:22:58.564Z,22.50
2019-03-24T20:25:28.056Z,23.37
2019-03-24T20:27:58.197Z,22.73
2019-03-24T20:30:27.647Z,22.33
2019-03-24T20:32:57.324Z,21.93
2019-03-24T20:35:26.820Z,22.83
2019-03-24T20:37:56.359Z,20.90
2019-03-24T20:40:25.916Z,22.13
2019-03-24T20:42:55.444Z,21.90
2019-03-24T20:45:24.972Z,23.13
2019-03-24T20:47:54.559Z,21.97
2019-03-24T20:50:24.112Z,22.40
2019-03-24T20:53:03.730Z,21.70
2019-03-24T20:55:24.884Z,23.50
2019-03-24T20:57:54.260Z,21.30
2019-03-24T21:00:37.047Z,20.43
2019-03-24T21:03:07.980Z,19.93
2019-03-24T21:05:37.917Z,24.10
2019-03-24T21:08:07.491Z,22.27
2019-03-24T21:10:37.032Z,24.10
2019-03-24T21:13:06.526Z,23.67
2019-03-24T21:15:36.253Z,24.17
2019-03-24T21:18:05.841Z,21.10
2019-03-24T21:20:35.543Z,21.07
2019-03-24T21:23:05.172Z,21.73
2019-03-24T21:25:34.596Z,23.00
2019-03-24T21:28:04.196Z,22.37
2019-03-24T21:30:35.952Z,22.63
2019-03-24T21:33:05.605Z,20.13
2019-03-24T21:35:35.208Z,18.63
2019-03-24T21:38:04.844Z,21.37
2019-03-24T21:40:34.863Z,20.10
2019-03-24T21:43:06.420Z,17.77
2019-03-24T21:45:35.623Z,20.03
2019-03-24T21:48:05.633Z,17.47
2019-03-24T21:50:35.912Z,21.60
2019-03-24T21:53:05.791Z,18.33
2019-03-24T21:55:35.345Z,16.53
2019-03-24T21:58:05.328Z,17.60
2019-03-24T22:00:38.596Z,15.60
2019-03-24T22:03:08.258Z,15.43
2019-03-24T22:05:37.834Z,20.80
2019-03-24T22:08:07.285Z,19.83
2019-03-24T22:10:36.753Z,13.53
2019-03-24T22:13:06.872Z,16.03
2019-03-24T22:15:36.493Z,14.77
2019-03-24T22:18:06.657Z,12.80
2019-03-24T22:20:36.007Z,14.57
2019-03-24T22:23:05.636Z,14.07
2019-03-24T22:25:35.156Z,12.50
2019-03-24T22:28:23.444Z,16.70
2019-03-24T22:30:52.886Z,15.03
2019-03-24T22:33:22.402Z,16.40
2019-03-24T22:35:51.716Z,14.73
2019-03-24T22:38:21.074Z,14.17
2019-03-24T22:40:50.565Z,13.70
2019-03-24T22:43:20.001Z,14.10
2019-03-24T22:45:49.410Z,15.70
2019-03-24T22:48:18.915Z,16.07
2019-03-24T22:50:48.522Z,13.03
2019-03-24T22:53:18.216Z,12.60
2019-03-24T22:55:47.914Z,13.03
2019-03-24T23:15:41.385Z,15.60
2019-03-24T23:18:11.426Z,12.03
2019-03-24T23:20:40.960Z,15.70
2019-03-24T23:23:10.385Z,11.90
2019-03-24T23:25:39.741Z,11.37
2019-03-24T23:28:09.368Z,11.13
2019-03-24T23:30:38.913Z,11.27
2019-03-24T23:33:08.385Z,11.53
2019-03-24T23:35:37.823Z,13.07
2019-03-24T23:38:07.288Z,12.70
2019-03-24T23:40:36.791Z,9.80
2019-03-24T23:43:06.739Z,13.50
2019-03-24T23:45:36.194Z,12.93
2019-03-24T23:48:05.802Z,12.30
2019-03-24T23:50:35.311Z,12.03
2019-03-24T23:53:05.212Z,14.17
2019-03-24T23:55:35.100Z,10.90
2019-03-24T23:58:04.512Z,10.80
